Current Weather Conditions: station LGAV

sailwx.info

Wind from 050 at 9 knots

Air temperature 36.0° C
Dewpoint 15.0° C

Last reported at 2015-Jul-30 14:20 UTC.
Time now 2015-Jul-30 16:11 UTC

Location: N 37°56' E 023°56'.
View on Google Maps.

See reports from other nearby stations

  
Tides and Currents Weather Stations Pressure Air Temp Water Temp Dewpoint Dewpoint Depression Visibility Wind Speed Wind Dir Waves Ship Positions
date/time (UTC)wind fromknots sea level pressurealtimeterstation pressurevisibilityair tempwater tempwave heightnotes
2015-Jul-30 15:20 010 8 35.0
2015-Jul-30 14:50 030 9 35.0
2015-Jul-30 14:20 050 9 36.0
2015-Jul-30 13:50 060 9 36.0
2015-Jul-30 13:20 070 10 35.0
2015-Jul-30 12:50 060 12 36.0
2015-Jul-30 12:20 070 9 36.0
2015-Jul-30 11:50 060 10 36.0
2015-Jul-30 11:20 070 10 35.0
2015-Jul-30 10:50 060 11 35.0
2015-Jul-30 10:20 060 10 35.0
2015-Jul-30 09:50 060 11 35.0
2015-Jul-30 09:20 060 11 35.0
2015-Jul-30 08:50 060 10 35.0
2015-Jul-30 08:20 050 9 35.0
2015-Jul-30 07:50 060 8 33.0
2015-Jul-30 07:20 33.0
2015-Jul-30 06:50 33.0
2015-Jul-30 06:20 31.0
2015-Jul-30 05:50 30.0
2015-Jul-30 05:20 28.0
2015-Jul-30 04:50 27.0
2015-Jul-30 04:20 230 2 26.0
2015-Jul-30 03:50 290 3 23.0
2015-Jul-30 03:20 260 2 21.0
2015-Jul-30 02:50 22.0
2015-Jul-30 02:20 290 2 22.0
2015-Jul-30 01:50 23.0
2015-Jul-30 01:20 250 4 24.0
2015-Jul-30 00:50 250 4 24.0
2015-Jul-30 00:20 250 3 24.0
2015-Jul-29 23:50 2.424.0
2015-Jul-29 23:20 260 3 26.0
2015-Jul-29 22:50 270 2 26.0
2015-Jul-29 22:20 25.0
2015-Jul-29 21:50 230 1 27.0
2015-Jul-29 21:20 250 2 26.0
2015-Jul-29 20:50 230 2 26.0
2015-Jul-29 20:20 27.0
2015-Jul-29 19:50 27.0
2015-Jul-29 19:20 290 2 28.0
2015-Jul-29 18:50 28.0
2015-Jul-29 18:20 240 3 30.0
2015-Jul-29 17:50 29.0
2015-Jul-29 17:20 040 8 30.0
2015-Jul-29 16:50 040 8 31.0
2015-Jul-29 16:20 040 7 32.0
2015-Jul-29 15:50 050 6 33.0
2015-Jul-29 15:20 030 7 35.0
2015-Jul-29 14:50 030 6 35.0
2015-Jul-29 14:20 080 5 36.0
2015-Jul-29 13:50 070 4 36.0
2015-Jul-29 13:20 090 5 35.0
2015-Jul-29 12:50 060 10 36.0
2015-Jul-29 12:20 060 11 5.436.0
2015-Jul-29 11:50 070 12 5.437.0
2015-Jul-29 11:20 050 14 5.436.0
2015-Jul-29 10:50 040 14 5.436.0
2015-Jul-29 10:20 060 14 5.436.0
2015-Jul-29 09:50 040 13 5.435.0
2015-Jul-29 09:20 050 11 5.436.0
2015-Jul-29 08:50 050 10 5.435.0
2015-Jul-29 08:20 060 8 5.434.0
2015-Jul-29 07:50 060 7 34.0
2015-Jul-29 07:20 050 4 34.0
2015-Jul-29 06:50 33.0
2015-Jul-29 06:20 31.0
2015-Jul-29 05:50 29.0
2015-Jul-29 05:20 28.0
2015-Jul-29 04:50 27.0
2015-Jul-29 04:20 26.0
2015-Jul-29 03:50 270 3 25.0
2015-Jul-29 03:20 290 3 23.0
2015-Jul-29 02:50 300 3 22.0
2015-Jul-29 02:20 22.0
2015-Jul-29 01:50 25.0
2015-Jul-29 01:20 25.0
2015-Jul-29 00:50 25.0
2015-Jul-29 00:20 290 2 26.0
2015-Jul-28 23:50 250 1 25.0
2015-Jul-28 23:20 230 3 26.0
2015-Jul-28 22:50 260 4 25.0
2015-Jul-28 22:20 260 3 25.0
2015-Jul-28 21:50 220 3 25.0
2015-Jul-28 21:20 26.0
2015-Jul-28 20:50 270 3 26.0
2015-Jul-28 20:20 27.0
2015-Jul-28 19:50 290 4 27.0
2015-Jul-28 19:20 270 1 29.0
2015-Jul-28 18:50 320 2 29.0
2015-Jul-28 18:20 330 3 29.0
2015-Jul-28 17:50 360 4 29.0
2015-Jul-28 17:20 050 3 30.0
2015-Jul-28 16:50 070 6 31.0
2015-Jul-28 16:20 070 7 31.0